createdAt,value
2023-05-10T00:00:38.282Z,238.16
2023-05-10T00:01:38.321Z,237.94
2023-05-10T00:02:38.577Z,238.41
2023-05-10T00:03:38.459Z,237.88
2023-05-10T00:04:38.442Z,238.39
2023-05-10T00:05:38.454Z,237.76
2023-05-10T00:06:38.541Z,237.93
2023-05-10T00:07:38.514Z,237.57
2023-05-10T00:08:38.554Z,237.43
2023-05-10T00:09:38.568Z,237.41
2023-05-10T00:10:38.623Z,237.32
2023-05-10T00:11:38.708Z,236.79
2023-05-10T00:12:38.709Z,237.32
2023-05-10T00:13:38.746Z,236.11
2023-05-10T00:14:38.761Z,236.28
2023-05-10T00:15:38.862Z,236.50
2023-05-10T00:16:38.954Z,237.18
2023-05-10T00:17:38.995Z,236.76
2023-05-10T00:18:38.980Z,236.16
2023-05-10T00:19:39.024Z,236.28
2023-05-10T00:20:39.032Z,236.47
2023-05-10T00:21:39.081Z,236.78
2023-05-10T00:22:39.084Z,236.13
2023-05-10T00:23:39.162Z,236.52
2023-05-10T00:24:39.159Z,236.66
2023-05-10T00:25:39.161Z,236.21
2023-05-10T00:26:39.178Z,235.80
2023-05-10T00:27:39.181Z,235.71
2023-05-10T00:28:39.247Z,236.76
2023-05-10T00:29:39.263Z,235.87
2023-05-10T00:30:39.277Z,235.54
2023-05-10T00:31:39.327Z,236.52
2023-05-10T00:32:39.420Z,235.83
2023-05-10T00:33:39.385Z,236.32
2023-05-10T00:34:39.412Z,236.68
2023-05-10T00:35:39.454Z,235.97
2023-05-10T00:36:39.444Z,234.99
2023-05-10T00:37:39.461Z,235.71
2023-05-10T00:38:39.469Z,236.12
2023-05-10T00:39:39.489Z,235.51
2023-05-10T00:40:39.481Z,235.30
2023-05-10T00:41:39.476Z,234.91
2023-05-10T00:42:39.486Z,236.14
2023-05-10T00:43:39.521Z,235.60
2023-05-10T00:44:39.502Z,234.89
2023-05-10T00:45:39.569Z,235.17
2023-05-10T00:46:39.499Z,234.61
2023-05-10T00:47:39.503Z,235.14
2023-05-10T00:48:39.487Z,234.99
2023-05-10T00:49:39.478Z,235.31
2023-05-10T00:50:39.510Z,235.07
2023-05-10T00:51:39.492Z,235.14
2023-05-10T00:52:39.477Z,234.90
2023-05-10T00:53:39.498Z,235.17
2023-05-10T00:54:39.485Z,235.51
2023-05-10T00:55:39.480Z,236.55
2023-05-10T00:56:39.482Z,234.25
2023-05-10T00:57:39.487Z,234.81
2023-05-10T00:58:39.469Z,234.37
2023-05-10T00:59:39.461Z,235.26
2023-05-10T01:00:39.455Z,234.68
2023-05-10T01:01:39.482Z,234.67
2023-05-10T01:02:39.597Z,234.07
2023-05-10T01:03:39.522Z,235.13
2023-05-10T01:04:39.492Z,234.23
2023-05-10T01:05:39.440Z,234.44
2023-05-10T01:06:39.457Z,234.46
2023-05-10T01:07:39.452Z,234.68
2023-05-10T01:08:39.477Z,234.38
2023-05-10T01:09:39.440Z,234.32
2023-05-10T01:10:39.485Z,234.98
2023-05-10T01:11:39.516Z,234.78
2023-05-10T01:12:39.509Z,233.98
2023-05-10T01:13:39.494Z,234.42
2023-05-10T01:14:39.517Z,233.89
2023-05-10T01:15:39.527Z,233.70
2023-05-10T01:16:39.489Z,233.27
2023-05-10T01:17:39.526Z,233.75
2023-05-10T01:18:39.479Z,234.08
2023-05-10T01:19:39.470Z,234.59
2023-05-10T01:20:39.492Z,234.01
2023-05-10T01:21:39.465Z,233.78
2023-05-10T01:22:39.500Z,233.84
2023-05-10T01:23:39.509Z,233.32
2023-05-10T01:24:39.514Z,233.46
2023-05-10T01:25:39.505Z,233.53
2023-05-10T01:26:39.533Z,234.01
2023-05-10T01:27:39.556Z,234.21
2023-05-10T01:28:39.522Z,232.75
2023-05-10T01:29:39.507Z,233.26
2023-05-10T01:30:39.515Z,233.80
2023-05-10T01:31:39.577Z,232.89
2023-05-10T01:32:39.542Z,232.45
2023-05-10T01:33:39.508Z,232.64
2023-05-10T01:34:39.535Z,232.43
2023-05-10T01:35:39.589Z,233.02
2023-05-10T01:36:39.558Z,232.61
2023-05-10T01:37:39.575Z,232.95
2023-05-10T01:38:39.600Z,233.25
2023-05-10T01:39:39.571Z,233.06
2023-05-10T01:40:39.577Z,233.27
2023-05-10T01:41:39.583Z,233.21
2023-05-10T01:42:39.603Z,232.58
2023-05-10T01:43:39.656Z,232.79
2023-05-10T01:44:39.615Z,232.87
2023-05-10T01:45:39.589Z,233.04
2023-05-10T01:46:39.674Z,233.46
2023-05-10T01:47:39.658Z,232.27
2023-05-10T01:48:39.602Z,233.59
2023-05-10T01:49:39.611Z,233.06
2023-05-10T01:50:39.673Z,233.18
2023-05-10T01:51:39.657Z,233.03
2023-05-10T01:52:39.662Z,233.21
2023-05-10T01:53:39.677Z,232.44
2023-05-10T01:54:39.677Z,233.14
2023-05-10T01:55:39.700Z,233.30
2023-05-10T01:56:39.695Z,232.62
2023-05-10T01:57:39.694Z,232.47
2023-05-10T01:58:39.711Z,232.78
2023-05-10T01:59:39.712Z,232.76
2023-05-10T02:00:39.788Z,233.21
2023-05-10T02:01:39.784Z,232.36
2023-05-10T02:02:39.787Z,232.95
2023-05-10T02:03:39.779Z,232.35
2023-05-10T02:04:39.786Z,232.20
2023-05-10T02:05:39.806Z,233.23
2023-05-10T02:06:39.785Z,233.01
2023-05-10T02:07:39.829Z,233.05
2023-05-10T02:08:39.810Z,232.91
2023-05-10T02:09:39.792Z,232.76
2023-05-10T02:10:39.821Z,233.61
2023-05-10T02:11:39.799Z,232.93
2023-05-10T02:12:39.840Z,232.72
2023-05-10T02:13:39.834Z,232.10
2023-05-10T02:14:39.863Z,233.03
2023-05-10T02:15:39.874Z,233.34
2023-05-10T02:16:39.945Z,233.69
2023-05-10T02:17:39.895Z,232.59
2023-05-10T02:18:39.927Z,233.09
2023-05-10T02:19:39.903Z,232.63
2023-05-10T02:20:39.928Z,232.81
2023-05-10T02:21:39.948Z,232.16
2023-05-10T02:22:39.954Z,233.22
2023-05-10T02:23:39.944Z,233.41
2023-05-10T02:24:39.974Z,232.65
2023-05-10T02:25:39.989Z,233.57
2023-05-10T02:26:40.018Z,232.25
2023-05-10T02:27:40.049Z,233.17
2023-05-10T02:28:40.061Z,233.31
2023-05-10T02:29:40.065Z,233.08
2023-05-10T02:30:40.126Z,232.98
2023-05-10T02:31:40.129Z,232.75
2023-05-10T02:32:40.132Z,232.54
2023-05-10T02:33:40.118Z,233.37
2023-05-10T02:34:40.146Z,232.86
2023-05-10T02:35:40.158Z,232.47
2023-05-10T02:36:40.145Z,232.72
2023-05-10T02:37:40.171Z,232.02
2023-05-10T02:38:40.181Z,232.90
2023-05-10T02:39:40.250Z,233.61
2023-05-10T02:40:40.185Z,232.02
2023-05-10T02:41:40.212Z,232.43
2023-05-10T02:42:40.261Z,233.16
2023-05-10T02:43:40.250Z,233.70
2023-05-10T02:44:40.232Z,232.84
2023-05-10T02:45:40.290Z,232.37
2023-05-10T02:46:40.284Z,234.09
2023-05-10T02:47:40.402Z,233.67
2023-05-10T02:48:40.411Z,233.38
2023-05-10T02:49:40.363Z,233.66
2023-05-10T02:50:40.363Z,234.17
2023-05-10T02:51:40.364Z,233.54
2023-05-10T02:52:40.365Z,232.83
2023-05-10T02:53:40.391Z,233.24
2023-05-10T02:54:40.400Z,233.39
2023-05-10T02:55:40.438Z,234.49
2023-05-10T02:56:40.460Z,234.00
2023-05-10T02:57:40.456Z,233.57
2023-05-10T02:58:40.597Z,232.18
2023-05-10T02:59:40.459Z,233.27
2023-05-10T03:00:40.481Z,234.06
2023-05-10T03:01:40.629Z,232.80
2023-05-10T03:02:40.608Z,233.44
2023-05-10T03:03:40.532Z,234.14
2023-05-10T03:04:40.594Z,234.01
2023-05-10T03:05:40.584Z,234.04
2023-05-10T03:06:40.569Z,234.07
2023-05-10T03:07:40.590Z,234.07
2023-05-10T03:08:40.650Z,233.33
2023-05-10T03:09:40.635Z,233.43
2023-05-10T03:10:40.689Z,233.67
2023-05-10T03:11:40.717Z,233.99
2023-05-10T03:12:40.719Z,233.56
2023-05-10T03:13:40.726Z,233.65
2023-05-10T03:14:40.803Z,233.78
2023-05-10T03:15:40.827Z,233.81
2023-05-10T03:16:42.080Z,233.12
2023-05-10T03:17:40.937Z,233.08
2023-05-10T03:18:40.974Z,233.29
2023-05-10T03:19:40.956Z,234.26
2023-05-10T03:20:41.013Z,233.59
2023-05-10T03:21:41.002Z,233.69
2023-05-10T03:22:41.009Z,232.93
2023-05-10T03:23:41.033Z,234.46
2023-05-10T03:24:41.056Z,234.82
2023-05-10T03:25:41.112Z,234.49
2023-05-10T03:26:41.090Z,233.91
2023-05-10T03:27:41.125Z,233.64
2023-05-10T03:28:41.138Z,234.45
2023-05-10T03:29:41.147Z,233.55
2023-05-10T03:30:41.168Z,233.23
2023-05-10T03:31:41.252Z,234.57
2023-05-10T03:32:41.249Z,234.56
2023-05-10T03:33:41.248Z,232.55
2023-05-10T03:34:41.284Z,234.16
2023-05-10T03:35:41.281Z,233.13
2023-05-10T03:36:41.324Z,234.09
2023-05-10T03:37:41.345Z,234.48
2023-05-10T03:38:41.360Z,234.48
2023-05-10T03:39:41.407Z,235.24
2023-05-10T03:40:41.436Z,234.85
2023-05-10T03:41:41.497Z,233.45
2023-05-10T03:42:41.494Z,233.12
2023-05-10T03:43:41.504Z,234.44
2023-05-10T03:44:41.490Z,234.04
2023-05-10T03:45:41.564Z,234.45
2023-05-10T03:46:41.616Z,234.02
2023-05-10T03:47:41.651Z,233.77
2023-05-10T03:48:41.636Z,233.86
2023-05-10T03:49:41.688Z,233.64
2023-05-10T03:50:41.697Z,234.34
2023-05-10T03:51:41.675Z,234.41
2023-05-10T03:52:41.728Z,233.49
2023-05-10T03:53:41.728Z,234.06
2023-05-10T03:54:41.823Z,234.64
2023-05-10T03:55:41.829Z,235.34
2023-05-10T03:56:41.845Z,234.29
2023-05-10T03:57:41.912Z,234.80
2023-05-10T03:58:41.916Z,234.20
2023-05-10T03:59:41.911Z,233.57
2023-05-10T04:00:41.969Z,233.35
2023-05-10T04:01:42.028Z,234.52
2023-05-10T04:02:42.024Z,232.80
2023-05-10T04:03:42.112Z,226.32
2023-05-10T04:04:42.074Z,222.27
2023-05-10T04:05:42.158Z,218.48
2023-05-10T04:06:42.264Z,212.49
2023-05-10T04:07:42.267Z,210.79
2023-05-10T04:08:42.341Z,204.35
2023-05-10T04:09:42.383Z,200.29
2023-05-10T04:10:42.409Z,196.92
2023-05-10T04:11:42.455Z,192.92
2023-05-10T04:12:42.647Z,188.02
2023-05-10T04:13:42.571Z,189.04
2023-05-10T04:14:42.614Z,190.27
2023-05-10T04:15:42.682Z,187.62
2023-05-10T04:16:42.777Z,183.53
2023-05-10T04:17:42.823Z,180.65
2023-05-10T04:18:42.838Z,184.13
2023-05-10T04:19:42.914Z,179.73
2023-05-10T04:20:42.967Z,179.17
2023-05-10T04:21:43.030Z,176.61
2023-05-10T04:22:43.103Z,181.10
2023-05-10T04:23:43.198Z,179.85
2023-05-10T04:24:43.256Z,183.56
2023-05-10T04:25:43.249Z,182.10
2023-05-10T04:26:43.333Z,184.49
2023-05-10T04:27:43.323Z,184.04
2023-05-10T04:28:43.323Z,179.53
2023-05-10T04:29:43.460Z,175.61
2023-05-10T04:30:43.516Z,171.44
2023-05-10T04:31:43.511Z,179.68
2023-05-10T04:32:43.555Z,184.56
2023-05-10T04:33:43.519Z,185.62
2023-05-10T04:34:43.678Z,185.13
2023-05-10T04:35:43.653Z,185.99
2023-05-10T04:36:43.653Z,188.22
2023-05-10T04:37:43.655Z,189.55
2023-05-10T04:38:43.704Z,187.48
2023-05-10T04:39:43.724Z,188.91
2023-05-10T04:40:43.774Z,189.58
2023-05-10T04:41:43.827Z,192.42
2023-05-10T04:42:43.885Z,192.59
2023-05-10T04:43:44.016Z,193.23
2023-05-10T04:44:43.958Z,193.06
2023-05-10T04:45:44.021Z,194.68
2023-05-10T04:46:44.100Z,195.27
2023-05-10T04:47:44.160Z,197.16
2023-05-10T04:48:44.107Z,197.05
2023-05-10T04:49:44.174Z,197.92
2023-05-10T04:50:44.192Z,198.26
2023-05-10T04:51:44.252Z,198.77
2023-05-10T04:52:44.285Z,199.62
2023-05-10T04:53:48.609Z,200.66
2023-05-10T04:54:45.321Z,200.78
2023-05-10T04:55:44.334Z,201.01
2023-05-10T04:56:44.320Z,201.13
2023-05-10T04:57:44.320Z,202.54
2023-05-10T04:58:44.305Z,203.40
2023-05-10T04:59:44.320Z,203.19
2023-05-10T05:00:44.257Z,204.13
2023-05-10T05:01:44.310Z,203.16
2023-05-10T05:02:44.347Z,203.85
2023-05-10T05:03:44.365Z,203.63
2023-05-10T05:04:44.250Z,204.69
2023-05-10T05:05:44.256Z,204.13
2023-05-10T05:06:44.269Z,204.30
2023-05-10T05:07:44.318Z,203.89
2023-05-10T05:08:44.337Z,205.11
2023-05-10T05:09:44.384Z,204.85
2023-05-10T05:10:44.388Z,204.89
2023-05-10T05:11:44.500Z,205.58
2023-05-10T05:12:44.612Z,204.34
2023-05-10T05:13:44.589Z,205.35
2023-05-10T05:14:44.571Z,206.70
2023-05-10T05:15:44.624Z,205.14
2023-05-10T05:16:44.755Z,205.10
2023-05-10T05:17:44.758Z,206.47
2023-05-10T05:18:44.804Z,206.26
2023-05-10T05:19:44.846Z,205.53
2023-05-10T05:20:44.868Z,207.63
2023-05-10T05:21:44.929Z,206.09
2023-05-10T05:22:44.988Z,207.44
2023-05-10T05:23:44.985Z,207.20
2023-05-10T05:24:45.042Z,207.20
2023-05-10T05:25:45.110Z,208.20
2023-05-10T05:26:45.111Z,209.29
2023-05-10T05:27:45.165Z,207.46
2023-05-10T05:28:45.187Z,208.20
2023-05-10T05:29:45.233Z,206.83
2023-05-10T05:30:45.285Z,207.58
2023-05-10T05:31:45.380Z,208.20
2023-05-10T05:32:45.393Z,207.47
2023-05-10T05:33:45.383Z,207.49
2023-05-10T05:34:45.424Z,207.12
2023-05-10T05:35:45.495Z,205.55
2023-05-10T05:36:45.565Z,190.28
2023-05-10T05:37:45.636Z,185.02
2023-05-10T05:38:45.647Z,184.53
2023-05-10T05:39:45.663Z,180.68
2023-05-10T05:40:45.726Z,172.62
2023-05-10T05:41:46.191Z,159.82
2023-05-10T05:42:45.844Z,160.05
2023-05-10T05:43:45.890Z,159.86
2023-05-10T05:44:45.958Z,161.56
2023-05-10T05:45:45.982Z,157.05
2023-05-10T05:46:46.034Z,141.20
2023-05-10T05:47:46.143Z,135.90
2023-05-10T05:48:46.125Z,149.18
2023-05-10T05:49:46.232Z,156.66
2023-05-10T05:50:46.655Z,166.69
2023-05-10T05:51:46.209Z,169.57
2023-05-10T05:52:46.339Z,171.30
2023-05-10T05:53:46.645Z,170.49
2023-05-10T05:54:46.239Z,175.81
2023-05-10T05:55:46.292Z,177.95
2023-05-10T05:56:46.291Z,175.63
2023-05-10T05:57:46.333Z,179.24
2023-05-10T05:58:46.325Z,183.34
2023-05-10T05:59:46.362Z,179.55
2023-05-10T06:00:46.425Z,177.31
2023-05-10T06:01:46.717Z,180.34
2023-05-10T06:02:46.682Z,179.24
2023-05-10T06:03:46.715Z,177.50
2023-05-10T06:04:46.636Z,181.24
2023-05-10T06:05:46.716Z,179.23
2023-05-10T06:06:47.203Z,181.09
2023-05-10T06:07:46.836Z,180.39
2023-05-10T06:08:47.154Z,185.09
2023-05-10T06:09:47.150Z,187.41
2023-05-10T06:10:47.168Z,188.65
2023-05-10T06:11:47.170Z,188.43
2023-05-10T06:12:47.199Z,189.46
2023-05-10T06:13:47.118Z,190.73
2023-05-10T06:14:47.237Z,194.05
2023-05-10T06:15:47.257Z,201.22
2023-05-10T06:16:47.323Z,202.38
2023-05-10T06:17:47.688Z,204.13
2023-05-10T06:18:47.445Z,203.05
2023-05-10T06:19:47.517Z,206.21
2023-05-10T06:20:47.542Z,204.04
2023-05-10T06:21:47.584Z,208.92
2023-05-10T06:22:47.653Z,211.68
2023-05-10T06:23:47.763Z,213.28
2023-05-10T06:24:47.701Z,216.96
2023-05-10T06:25:47.776Z,218.71
2023-05-10T06:26:47.802Z,219.23
2023-05-10T06:27:50.475Z,223.01
2023-05-10T06:28:47.893Z,223.19
2023-05-10T06:29:49.215Z,223.92
2023-05-10T06:30:48.046Z,226.11
2023-05-10T06:31:48.096Z,230.39
2023-05-10T06:32:48.217Z,235.29
2023-05-10T06:33:48.241Z,238.26
2023-05-10T06:34:48.259Z,240.02
2023-05-10T06:35:48.363Z,240.50
2023-05-10T06:36:48.361Z,245.65
2023-05-10T06:37:48.402Z,249.74
2023-05-10T06:38:48.684Z,249.96
2023-05-10T06:39:48.490Z,251.00
2023-05-10T06:40:48.569Z,249.45
2023-05-10T06:41:48.559Z,250.00
2023-05-10T06:42:48.601Z,249.04
2023-05-10T06:43:48.610Z,249.40
2023-05-10T06:44:48.657Z,247.50
2023-05-10T06:45:48.788Z,246.37
2023-05-10T06:46:48.832Z,244.68
2023-05-10T06:47:48.806Z,245.71
2023-05-10T06:48:49.194Z,245.16
2023-05-10T06:49:49.192Z,246.58
2023-05-10T06:50:49.127Z,244.11
2023-05-10T06:51:49.114Z,248.01
2023-05-10T06:52:49.566Z,248.35
2023-05-10T06:53:49.069Z,247.99
2023-05-10T06:54:49.040Z,245.89
2023-05-10T06:55:49.137Z,244.04
2023-05-10T06:56:49.118Z,243.05
2023-05-10T06:57:49.585Z,242.10
2023-05-10T06:58:49.218Z,241.95
2023-05-10T06:59:49.173Z,242.01
2023-05-10T07:00:49.263Z,241.04
2023-05-10T07:01:49.299Z,241.46
2023-05-10T07:02:49.400Z,242.52
2023-05-10T07:03:49.392Z,242.15
2023-05-10T07:04:49.454Z,241.60
2023-05-10T07:05:49.439Z,239.36
2023-05-10T07:06:49.492Z,239.27
2023-05-10T07:07:49.510Z,239.42
2023-05-10T07:08:49.511Z,233.96
2023-05-10T07:09:49.562Z,232.45
2023-05-10T07:10:49.557Z,232.12
2023-05-10T07:11:49.631Z,231.56
2023-05-10T07:12:49.731Z,231.47
2023-05-10T07:13:49.632Z,230.67
2023-05-10T07:14:49.685Z,230.58
2023-05-10T07:15:49.735Z,230.75
2023-05-10T07:16:49.708Z,230.55
2023-05-10T07:17:49.853Z,231.45
2023-05-10T07:18:49.777Z,231.06
2023-05-10T07:19:49.834Z,232.92
2023-05-10T07:20:49.947Z,232.52
2023-05-10T07:21:49.942Z,236.75
2023-05-10T07:22:49.956Z,239.33
2023-05-10T07:23:50.007Z,240.31
2023-05-10T07:24:50.029Z,240.68
2023-05-10T07:25:50.081Z,241.00
2023-05-10T07:26:50.092Z,241.36
2023-05-10T07:27:50.110Z,242.16
2023-05-10T07:28:50.184Z,241.67
2023-05-10T07:29:50.186Z,241.29
2023-05-10T07:30:50.339Z,240.89
2023-05-10T07:31:50.304Z,240.91
2023-05-10T07:32:50.316Z,241.01
2023-05-10T07:33:50.300Z,243.78
2023-05-10T07:34:50.305Z,247.94
2023-05-10T07:35:50.354Z,249.42
2023-05-10T07:36:50.319Z,249.60
2023-05-10T07:37:50.384Z,249.56
2023-05-10T07:38:50.385Z,243.64
2023-05-10T07:39:51.144Z,240.66
2023-05-10T07:40:50.492Z,240.92
2023-05-10T07:41:50.494Z,243.72
2023-05-10T07:42:50.512Z,244.46
2023-05-10T07:43:50.562Z,248.41
2023-05-10T07:44:50.624Z,246.08
2023-05-10T07:45:50.674Z,245.26
2023-05-10T07:46:50.655Z,245.69
2023-05-10T07:47:50.659Z,245.90
2023-05-10T07:48:50.727Z,246.28
2023-05-10T07:49:50.705Z,246.11
2023-05-10T07:50:50.724Z,249.10
2023-05-10T07:51:50.769Z,248.72
2023-05-10T07:52:50.776Z,246.32
2023-05-10T07:53:50.766Z,245.35
2023-05-10T07:54:50.773Z,245.00
2023-05-10T07:55:50.770Z,243.57
2023-05-10T07:56:50.792Z,243.83
2023-05-10T07:57:50.841Z,244.43
2023-05-10T07:58:50.824Z,248.62
2023-05-10T07:59:50.887Z,249.16
2023-05-10T08:00:50.881Z,247.99
2023-05-10T08:01:50.881Z,247.90
2023-05-10T08:02:50.976Z,248.35
2023-05-10T08:03:50.986Z,247.56
2023-05-10T08:04:50.953Z,249.65
2023-05-10T08:05:50.886Z,250.00
2023-05-10T08:06:50.964Z,245.82
2023-05-10T08:07:50.968Z,247.11
2023-05-10T08:08:50.976Z,250.00
2023-05-10T08:09:50.985Z,249.80
2023-05-10T08:10:51.001Z,246.76
2023-05-10T08:11:50.987Z,246.63
2023-05-10T08:12:50.991Z,245.68
2023-05-10T08:13:51.003Z,243.50
2023-05-10T08:14:51.017Z,240.74
2023-05-10T08:15:51.061Z,242.79
2023-05-10T08:16:51.012Z,239.24
2023-05-10T08:17:51.124Z,239.95
2023-05-10T08:18:51.156Z,239.94
2023-05-10T08:19:51.122Z,239.22
2023-05-10T08:20:51.113Z,241.07
2023-05-10T08:21:51.126Z,239.33
2023-05-10T08:22:51.906Z,240.06
2023-05-10T08:23:51.128Z,240.70
2023-05-10T08:24:51.171Z,239.34
2023-05-10T08:25:51.173Z,239.08
2023-05-10T08:26:51.174Z,236.58
2023-05-10T08:27:51.216Z,237.63
2023-05-10T08:28:51.279Z,237.54
2023-05-10T08:29:51.280Z,235.62
2023-05-10T08:30:51.232Z,233.07
2023-05-10T08:31:51.333Z,232.85
2023-05-10T08:32:51.284Z,229.02
2023-05-10T08:33:51.274Z,228.99
2023-05-10T08:34:51.324Z,224.84
2023-05-10T08:35:51.328Z,224.38
2023-05-10T08:36:51.369Z,222.69
2023-05-10T08:37:51.331Z,221.87
2023-05-10T08:38:52.116Z,219.34
2023-05-10T08:39:51.419Z,219.34
2023-05-10T08:40:51.470Z,225.51
2023-05-10T08:41:51.570Z,227.55
2023-05-10T08:42:51.528Z,226.15
2023-05-10T08:43:51.562Z,223.98
2023-05-10T08:44:51.606Z,222.88
2023-05-10T08:45:51.645Z,225.66
2023-05-10T08:46:51.673Z,226.63
2023-05-10T08:47:51.702Z,229.28
2023-05-10T08:48:51.730Z,232.82
2023-05-10T08:49:52.094Z,244.59
2023-05-10T08:50:51.748Z,250.00
2023-05-10T08:51:51.790Z,248.38
2023-05-10T08:52:51.806Z,248.33
2023-05-10T08:53:51.873Z,248.07
2023-05-10T08:54:51.850Z,250.00
2023-05-10T08:55:51.909Z,248.19
2023-05-10T08:56:51.936Z,249.23
2023-05-10T08:57:51.972Z,248.04
2023-05-10T08:58:51.994Z,252.98
2023-05-10T08:59:52.012Z,247.54
2023-05-10T09:00:52.166Z,247.11
2023-05-10T09:01:52.014Z,247.19
2023-05-10T09:02:52.102Z,242.87
2023-05-10T09:03:52.137Z,240.25
2023-05-10T09:04:52.269Z,237.29
2023-05-10T09:05:52.098Z,238.50
2023-05-10T09:06:52.100Z,237.55
2023-05-10T09:07:52.122Z,239.85
2023-05-10T09:08:52.182Z,237.99
2023-05-10T09:09:52.191Z,236.03
2023-05-10T09:10:52.234Z,233.53
2023-05-10T09:11:52.298Z,236.14
2023-05-10T09:12:52.338Z,237.23
2023-05-10T09:13:52.361Z,237.38
2023-05-10T09:14:52.454Z,235.98
2023-05-10T09:15:53.088Z,243.00
2023-05-10T09:16:52.539Z,246.95
2023-05-10T09:17:52.593Z,244.75
2023-05-10T09:18:52.651Z,247.11
2023-05-10T09:19:52.569Z,250.00
2023-05-10T09:20:52.556Z,249.46
2023-05-10T09:21:52.633Z,250.00
2023-05-10T09:22:52.673Z,249.14
2023-05-10T09:23:52.738Z,267.43
2023-05-10T09:24:52.750Z,273.05
2023-05-10T09:25:52.841Z,263.58
2023-05-10T09:26:52.909Z,246.54
2023-05-10T09:27:52.957Z,241.29
2023-05-10T09:28:53.029Z,234.70
2023-05-10T09:29:52.983Z,232.61
2023-05-10T09:30:53.078Z,234.23
2023-05-10T09:31:53.090Z,232.74
2023-05-10T09:32:53.191Z,218.95
2023-05-10T09:33:53.206Z,202.64
2023-05-10T09:34:53.296Z,188.31
2023-05-10T09:35:53.240Z,174.47
2023-05-10T09:36:53.315Z,175.19
2023-05-10T09:37:53.346Z,178.82
2023-05-10T09:38:53.428Z,174.84
2023-05-10T09:39:53.517Z,165.00
2023-05-10T09:40:53.530Z,157.45
2023-05-10T09:41:53.524Z,153.37
2023-05-10T09:42:53.602Z,153.46
2023-05-10T09:43:53.572Z,151.49
2023-05-10T09:44:53.599Z,157.41
2023-05-10T09:45:53.619Z,157.82
2023-05-10T09:46:53.624Z,157.72
2023-05-10T09:47:53.727Z,158.61
2023-05-10T09:48:53.685Z,160.72
2023-05-10T09:49:53.690Z,159.78
2023-05-10T09:50:53.697Z,158.72
2023-05-10T09:51:53.696Z,157.50
2023-05-10T09:52:54.105Z,156.55
2023-05-10T09:53:53.937Z,157.31
2023-05-10T09:54:53.943Z,157.04
2023-05-10T09:55:53.861Z,156.50
2023-05-10T09:56:53.891Z,155.68
2023-05-10T09:57:53.944Z,157.21
2023-05-10T09:58:53.981Z,158.11
2023-05-10T09:59:54.001Z,157.34
2023-05-10T10:00:54.064Z,154.74
2023-05-10T10:01:54.196Z,153.98
2023-05-10T10:02:54.192Z,153.80
2023-05-10T10:03:54.230Z,154.29
2023-05-10T10:04:54.357Z,153.44
2023-05-10T10:05:54.351Z,152.35
2023-05-10T10:06:54.415Z,150.72
2023-05-10T10:07:54.471Z,151.37
2023-05-10T10:08:56.777Z,149.42
2023-05-10T10:09:54.665Z,147.74
2023-05-10T10:10:54.644Z,147.28
2023-05-10T10:11:54.713Z,147.70
2023-05-10T10:12:54.772Z,148.41
2023-05-10T10:13:54.822Z,148.79
2023-05-10T10:14:54.888Z,150.22
2023-05-10T10:15:55.006Z,149.81
2023-05-10T10:17:05.862Z,149.52
2023-05-10T10:17:56.060Z,149.56
2023-05-10T10:18:55.110Z,149.55
2023-05-10T10:19:54.977Z,148.67
2023-05-10T10:20:54.969Z,148.54
2023-05-10T10:21:55.075Z,148.55
2023-05-10T10:22:54.968Z,148.45
2023-05-10T10:23:54.947Z,149.04
2023-05-10T10:24:54.958Z,149.46
2023-05-10T10:25:54.953Z,151.42
2023-05-10T10:26:55.084Z,153.22
2023-05-10T10:27:54.985Z,154.18
2023-05-10T10:28:55.011Z,159.24
2023-05-10T10:29:55.067Z,162.21
2023-05-10T10:30:55.053Z,160.08
2023-05-10T10:31:55.147Z,152.83
2023-05-10T10:32:55.104Z,140.67
2023-05-10T10:33:55.120Z,135.70
2023-05-10T10:34:55.137Z,133.10
2023-05-10T10:35:55.196Z,133.55
2023-05-10T10:36:55.264Z,133.75
2023-05-10T10:37:55.341Z,137.01
2023-05-10T10:38:55.387Z,139.90
2023-05-10T10:39:55.452Z,146.34
2023-05-10T10:40:55.565Z,146.70
2023-05-10T10:41:55.601Z,148.38
2023-05-10T10:42:55.586Z,152.22
2023-05-10T10:43:55.640Z,155.90
2023-05-10T10:44:55.642Z,156.25
2023-05-10T10:45:55.712Z,161.65
2023-05-10T10:46:55.750Z,162.71
2023-05-10T10:47:55.762Z,162.44
2023-05-10T10:48:55.752Z,164.33
2023-05-10T10:49:55.840Z,161.86
2023-05-10T10:50:55.843Z,159.73
2023-05-10T10:51:55.889Z,158.41
2023-05-10T10:52:55.924Z,157.52
2023-05-10T10:53:55.917Z,156.32
2023-05-10T10:54:55.981Z,154.26
2023-05-10T10:55:55.959Z,154.68
2023-05-10T10:56:55.991Z,149.61
2023-05-10T10:57:56.010Z,153.15
2023-05-10T10:58:56.038Z,148.52
2023-05-10T10:59:56.036Z,152.76
2023-05-10T11:00:56.153Z,149.33
2023-05-10T11:01:56.070Z,146.92
2023-05-10T11:02:56.212Z,146.22
2023-05-10T11:03:56.173Z,144.63
2023-05-10T11:04:56.092Z,141.12
2023-05-10T11:05:56.148Z,142.81
2023-05-10T11:06:56.113Z,142.99
2023-05-10T11:07:56.180Z,140.15
2023-05-10T11:08:56.184Z,141.23
2023-05-10T11:09:56.203Z,143.62
2023-05-10T11:10:56.187Z,145.10
2023-05-10T11:11:56.497Z,144.56
2023-05-10T11:12:56.214Z,141.65
2023-05-10T11:13:56.217Z,144.00
2023-05-10T11:14:56.221Z,146.17
2023-05-10T11:15:56.212Z,152.45
2023-05-10T11:16:56.338Z,149.65
2023-05-10T11:17:56.268Z,161.35
2023-05-10T11:18:56.406Z,161.69
2023-05-10T11:19:56.345Z,164.08
2023-05-10T11:20:56.393Z,166.44
2023-05-10T11:21:56.456Z,163.63
2023-05-10T11:22:56.503Z,161.93
2023-05-10T11:23:56.525Z,153.75
2023-05-10T11:24:56.523Z,145.30
2023-05-10T11:25:56.521Z,153.41
2023-05-10T11:26:56.608Z,150.57
2023-05-10T11:27:57.010Z,145.41
2023-05-10T11:28:56.634Z,145.09
2023-05-10T11:29:56.645Z,145.61
2023-05-10T11:30:56.700Z,141.80
2023-05-10T11:31:56.676Z,128.06
2023-05-10T11:32:56.743Z,133.88
2023-05-10T11:33:56.704Z,130.16
2023-05-10T11:34:56.740Z,125.42
2023-05-10T11:35:56.765Z,124.01
2023-05-10T11:36:56.843Z,122.44
2023-05-10T11:37:56.799Z,124.22
2023-05-10T11:38:56.844Z,119.97
2023-05-10T11:39:56.857Z,118.17
2023-05-10T11:40:56.898Z,112.06
2023-05-10T11:41:56.938Z,115.81
2023-05-10T11:42:57.013Z,113.96
2023-05-10T11:43:57.017Z,110.65
2023-05-10T11:44:57.051Z,112.40
2023-05-10T11:45:57.180Z,108.28
2023-05-10T11:46:57.177Z,106.15
2023-05-10T11:47:57.292Z,98.67
2023-05-10T11:48:57.295Z,101.20
2023-05-10T11:49:57.374Z,97.20
2023-05-10T11:50:57.405Z,93.06
2023-05-10T11:51:57.464Z,94.03
2023-05-10T11:52:57.495Z,87.69
2023-05-10T11:53:57.596Z,72.95
2023-05-10T11:54:57.612Z,74.02
2023-05-10T11:55:57.640Z,65.98
2023-05-10T11:56:57.658Z,61.10
2023-05-10T11:57:57.750Z,59.93
2023-05-10T11:58:57.766Z,51.49
2023-05-10T11:59:57.746Z,52.92
2023-05-10T12:00:57.766Z,53.09
2023-05-10T12:01:57.802Z,51.93
2023-05-10T12:02:57.920Z,50.14
2023-05-10T12:03:57.954Z,46.84
2023-05-10T12:04:57.834Z,57.55
2023-05-10T12:05:57.804Z,62.80
2023-05-10T12:06:57.835Z,74.95
2023-05-10T12:07:57.817Z,86.70
2023-05-10T12:08:57.792Z,97.45
2023-05-10T12:09:57.803Z,102.60
2023-05-10T12:10:57.824Z,115.17
2023-05-10T12:11:57.825Z,115.42
2023-05-10T12:12:57.952Z,116.91
2023-05-10T12:13:57.953Z,122.41
2023-05-10T12:14:57.913Z,125.02
2023-05-10T12:15:57.971Z,128.95
2023-05-10T12:16:57.953Z,132.05
2023-05-10T12:17:57.929Z,134.48
2023-05-10T12:18:58.075Z,135.22
2023-05-10T12:19:57.992Z,140.57
2023-05-10T12:20:57.955Z,143.31
2023-05-10T12:21:57.934Z,151.02
2023-05-10T12:22:59.759Z,153.67
2023-05-10T12:23:58.109Z,155.49
2023-05-10T12:24:58.062Z,157.23
2023-05-10T12:25:58.132Z,175.88
2023-05-10T12:26:58.072Z,187.57
2023-05-10T12:27:58.070Z,191.56
2023-05-10T12:28:58.149Z,190.34
2023-05-10T12:29:58.161Z,188.98